createdAt,value
2023-02-03T00:02:13.379Z,6.45
2023-02-03T00:04:45.380Z,7.25
2023-02-03T00:07:17.312Z,9.68
2023-02-03T00:09:49.299Z,9.07
2023-02-03T00:12:21.255Z,9.13
2023-02-03T00:14:53.162Z,9.52
2023-02-03T00:17:25.137Z,7.60
2023-02-03T00:19:57.047Z,9.30
2023-02-03T00:22:29.029Z,10.60
2023-02-03T00:25:00.945Z,8.43
2023-02-03T00:27:33.074Z,10.57
2023-02-03T00:30:05.592Z,8.50
2023-02-03T00:32:37.957Z,8.63
2023-02-03T00:35:09.983Z,8.95
2023-02-03T00:37:42.035Z,11.13
2023-02-03T00:40:14.145Z,8.15
2023-02-03T00:42:46.131Z,7.97
2023-02-03T00:45:18.233Z,5.75
2023-02-03T00:47:50.156Z,6.22
2023-02-03T00:50:22.077Z,9.40
2023-02-03T00:52:54.991Z,8.20
2023-02-03T00:55:26.942Z,9.32
2023-02-03T00:57:58.882Z,6.97
2023-02-03T01:00:30.849Z,7.57
2023-02-03T01:03:02.771Z,8.13
2023-02-03T01:05:34.698Z,7.65
2023-02-03T01:08:06.692Z,8.88
2023-02-03T01:10:39.364Z,9.10
2023-02-03T01:13:11.301Z,7.88
2023-02-03T01:15:51.029Z,8.85
2023-02-03T01:18:22.956Z,6.90
2023-02-03T01:20:54.909Z,5.97
2023-02-03T01:23:26.838Z,7.60
2023-02-03T01:26:03.319Z,5.43
2023-02-03T01:28:35.548Z,6.40
2023-02-03T01:31:13.689Z,8.35
2023-02-03T01:33:48.566Z,5.57
2023-02-03T01:36:22.725Z,5.43
2023-02-03T01:38:54.749Z,6.82
2023-02-03T01:41:33.273Z,6.22
2023-02-03T01:44:44.111Z,6.13
2023-02-03T01:47:31.363Z,5.65
2023-02-03T01:50:21.483Z,6.82
2023-02-03T01:53:19.735Z,8.07
2023-02-03T01:55:52.202Z,7.53
2023-02-03T01:58:28.462Z,5.88
2023-02-03T02:01:00.608Z,7.35
2023-02-03T02:03:43.094Z,14.70
2023-02-03T02:06:15.242Z,6.10
2023-02-03T02:08:50.695Z,7.20
2023-02-03T02:11:22.806Z,7.25
2023-02-03T02:13:59.491Z,8.35
2023-02-03T02:16:55.780Z,6.60
2023-02-03T02:19:39.733Z,6.03
2023-02-03T02:22:39.665Z,8.02
2023-02-03T02:25:49.352Z,7.00
2023-02-03T02:28:39.369Z,5.38
2023-02-03T02:31:41.824Z,8.57
2023-02-03T02:34:40.976Z,8.18
2023-02-03T02:37:35.529Z,6.80
2023-02-03T02:40:40.787Z,6.20
2023-02-03T02:43:18.302Z,8.65
2023-02-03T02:46:00.546Z,4.70
2023-02-03T02:48:38.474Z,4.30
2023-02-03T02:51:13.177Z,7.57
2023-02-03T02:54:08.818Z,5.30
2023-02-03T02:56:44.217Z,5.40
2023-02-03T02:59:16.233Z,5.25
2023-02-03T03:01:48.215Z,5.75
2023-02-03T03:04:25.674Z,6.93
2023-02-03T03:07:01.976Z,5.43
2023-02-03T03:09:40.758Z,4.75
2023-02-03T03:12:17.213Z,6.60
2023-02-03T03:14:54.110Z,3.88
2023-02-03T03:17:41.350Z,6.18
2023-02-03T03:20:18.906Z,5.63
2023-02-03T03:23:03.581Z,5.97
2023-02-03T03:25:41.942Z,4.93
2023-02-03T03:28:27.148Z,4.75
2023-02-03T03:30:59.387Z,6.65
2023-02-03T03:33:31.556Z,4.45
2023-02-03T03:36:07.563Z,6.35
2023-02-03T03:38:50.384Z,8.07
2023-02-03T03:41:36.862Z,6.47
2023-02-03T03:44:13.521Z,7.63
2023-02-03T03:46:51.697Z,5.75
2023-02-03T03:49:26.856Z,9.68
2023-02-03T03:52:05.133Z,7.22
2023-02-03T03:54:38.977Z,7.20
2023-02-03T03:57:21.750Z,5.30
2023-02-03T03:59:55.242Z,6.32
2023-02-03T04:02:28.607Z,8.32
2023-02-03T04:05:03.114Z,6.82
2023-02-03T04:07:46.680Z,7.15
2023-02-03T04:10:30.349Z,7.30
2023-02-03T04:13:04.318Z,8.43
2023-02-03T04:15:36.749Z,7.82
2023-02-03T04:18:08.696Z,9.43
2023-02-03T04:20:40.768Z,7.47
2023-02-03T04:23:12.785Z,6.97
2023-02-03T04:25:44.724Z,9.50
2023-02-03T04:28:16.717Z,12.02
2023-02-03T04:30:48.722Z,7.65
2023-02-03T04:33:20.771Z,7.80
2023-02-03T04:35:53.030Z,7.05
2023-02-03T04:38:25.224Z,8.10
2023-02-03T04:40:57.239Z,8.38
2023-02-03T04:43:29.232Z,9.30
2023-02-03T04:46:01.641Z,11.30
2023-02-03T04:48:33.598Z,15.48
2023-02-03T04:51:07.961Z,13.27
2023-02-03T04:53:40.125Z,11.38
2023-02-03T04:56:12.050Z,18.65
2023-02-03T04:58:43.996Z,13.15
2023-02-03T05:01:15.986Z,14.07
2023-02-03T05:03:48.001Z,16.10
2023-02-03T05:06:29.088Z,11.10
2023-02-03T05:09:01.161Z,12.88
2023-02-03T05:11:33.292Z,17.92
2023-02-03T05:14:05.357Z,20.55
2023-02-03T05:16:37.318Z,15.30
2023-02-03T05:19:09.374Z,16.80
2023-02-03T05:21:41.343Z,16.50
2023-02-03T05:24:13.319Z,17.60
2023-02-03T05:26:45.276Z,19.27
2023-02-03T05:29:17.187Z,20.08
2023-02-03T05:31:49.263Z,18.40
2023-02-03T05:34:21.343Z,14.88
2023-02-03T05:36:53.474Z,15.55
2023-02-03T05:39:25.451Z,17.10
2023-02-03T05:41:58.625Z,18.60
2023-02-03T05:44:31.500Z,69.82
2023-02-03T05:47:03.479Z,72.82
2023-02-03T05:49:35.445Z,59.63
2023-02-03T05:52:07.416Z,52.35
2023-02-03T05:54:39.312Z,36.90
2023-02-03T05:57:11.740Z,26.17
2023-02-03T05:59:43.680Z,20.60
2023-02-03T06:02:15.776Z,20.23
2023-02-03T06:04:47.784Z,20.80
2023-02-03T06:07:19.811Z,19.42
2023-02-03T06:09:51.755Z,20.00
2023-02-03T06:12:23.756Z,16.42
2023-02-03T06:14:58.840Z,17.90
2023-02-03T06:17:30.841Z,23.70
2023-02-03T06:20:04.733Z,32.65
2023-02-03T06:22:36.660Z,34.63
2023-02-03T06:25:11.801Z,42.00
2023-02-03T06:27:44.859Z,37.72
2023-02-03T06:30:18.054Z,40.67
2023-02-03T06:32:50.419Z,33.08
2023-02-03T06:35:22.417Z,35.33
2023-02-03T06:37:54.483Z,29.42
2023-02-03T06:40:26.877Z,31.73
2023-02-03T06:42:59.157Z,25.27
2023-02-03T06:45:31.150Z,20.50
2023-02-03T06:48:03.173Z,22.52
2023-02-03T06:50:35.086Z,24.67
2023-02-03T06:53:07.111Z,48.35
2023-02-03T06:55:39.032Z,63.08
2023-02-03T06:58:11.121Z,62.03
2023-02-03T07:00:43.283Z,73.43
2023-02-03T07:03:15.287Z,51.83
2023-02-03T07:05:47.288Z,47.88
2023-02-03T07:08:19.317Z,44.60
2023-02-03T07:10:55.470Z,43.40
2023-02-03T07:13:27.461Z,49.60
2023-02-03T07:15:59.586Z,65.25
2023-02-03T07:18:48.236Z,43.08
2023-02-03T07:21:20.186Z,30.38
2023-02-03T07:23:54.071Z,22.75
2023-02-03T07:26:26.847Z,27.88
2023-02-03T07:29:01.026Z,17.70
2023-02-03T07:31:33.061Z,19.77
2023-02-03T07:34:06.634Z,20.17
2023-02-03T07:36:38.701Z,20.95
2023-02-03T07:39:10.617Z,18.33
2023-02-03T07:41:42.447Z,15.07
2023-02-03T07:44:14.390Z,15.20
2023-02-03T07:46:46.352Z,16.17
2023-02-03T07:49:18.293Z,17.80
2023-02-03T07:51:50.112Z,20.40
2023-02-03T07:54:22.018Z,20.15
2023-02-03T07:56:54.728Z,16.90
2023-02-03T07:59:26.706Z,15.55
2023-02-03T08:01:58.764Z,14.57
2023-02-03T08:04:30.786Z,12.68
2023-02-03T08:07:02.904Z,14.25
2023-02-03T08:09:35.186Z,13.25
2023-02-03T08:12:07.094Z,14.68
2023-02-03T08:14:39.043Z,10.48
2023-02-03T08:17:10.952Z,9.18
2023-02-03T08:19:43.647Z,9.68
2023-02-03T08:22:19.498Z,10.32
2023-02-03T08:24:51.498Z,13.38
2023-02-03T08:27:23.802Z,12.25
2023-02-03T08:29:55.662Z,32.83
2023-02-03T08:32:28.115Z,26.42
2023-02-03T08:35:00.160Z,10.77
2023-02-03T08:37:32.966Z,10.30
2023-02-03T08:40:06.180Z,8.68
2023-02-03T08:42:38.560Z,12.05
2023-02-03T08:45:11.035Z,8.32
2023-02-03T08:47:43.323Z,8.77
2023-02-03T08:50:15.455Z,12.30
2023-02-03T08:52:47.388Z,18.23
2023-02-03T08:55:19.333Z,13.05
2023-02-03T08:57:51.253Z,17.30
2023-02-03T09:00:23.352Z,13.40
2023-02-03T09:02:55.341Z,8.77
2023-02-03T09:05:27.321Z,6.15
2023-02-03T09:07:59.444Z,8.38
2023-02-03T09:10:31.498Z,6.47
2023-02-03T09:13:03.587Z,7.82
2023-02-03T09:15:35.551Z,8.20
2023-02-03T09:18:07.494Z,9.25
2023-02-03T09:20:39.447Z,8.43
2023-02-03T09:23:11.502Z,6.43
2023-02-03T09:25:46.722Z,5.75
2023-02-03T09:28:19.872Z,7.07
2023-02-03T09:30:51.889Z,5.57
2023-02-03T09:33:23.861Z,7.90
2023-02-03T09:35:57.392Z,6.28
2023-02-03T09:38:29.790Z,5.97
2023-02-03T09:41:18.832Z,10.23
2023-02-03T09:44:20.895Z,9.57
2023-02-03T09:46:59.216Z,8.45
2023-02-03T09:49:41.391Z,8.68
2023-02-03T09:52:28.660Z,6.25
2023-02-03T09:55:28.386Z,7.78
2023-02-03T09:58:05.766Z,12.93
2023-02-03T10:00:43.699Z,5.68
2023-02-03T10:03:22.401Z,3.67
2023-02-03T10:06:19.086Z,5.07
2023-02-03T10:09:30.126Z,17.13
2023-02-03T10:14:49.119Z,4.82
2023-02-03T10:17:40.473Z,5.25
2023-02-03T10:20:18.647Z,20.05
2023-02-03T10:22:58.856Z,9.68
2023-02-03T10:25:42.870Z,5.53
2023-02-03T10:28:20.984Z,5.80
2023-02-03T10:31:01.440Z,4.82
2023-02-03T10:33:34.874Z,2.92
2023-02-03T10:36:19.152Z,5.03
2023-02-03T10:39:10.909Z,5.25
2023-02-03T10:41:42.906Z,6.10
2023-02-03T10:44:16.239Z,3.22
2023-02-03T10:46:48.205Z,6.22
2023-02-03T10:49:21.715Z,5.30
2023-02-03T10:51:58.302Z,6.38
2023-02-03T10:54:35.815Z,6.32
2023-02-03T10:57:14.710Z,2.60
2023-02-03T10:59:48.412Z,8.07
2023-02-03T11:02:26.182Z,7.38
2023-02-03T11:05:12.113Z,4.55
2023-02-03T11:07:45.561Z,7.32
2023-02-03T11:10:39.709Z,6.85
2023-02-03T11:13:22.134Z,5.90
2023-02-03T11:16:13.594Z,5.03
2023-02-03T11:18:54.925Z,6.40
2023-02-03T11:21:38.887Z,6.72
2023-02-03T11:24:26.401Z,5.47
2023-02-03T11:27:15.199Z,9.95
2023-02-03T11:29:50.680Z,6.03
2023-02-03T11:32:38.585Z,6.82
2023-02-03T11:35:16.505Z,7.82
2023-02-03T11:37:51.833Z,27.92
2023-02-03T11:40:31.476Z,19.48
2023-02-03T11:43:14.287Z,39.58
2023-02-03T11:45:52.013Z,7.10
2023-02-03T11:48:31.387Z,14.77
2023-02-03T11:51:37.413Z,18.35
2023-02-03T11:54:20.996Z,12.80
2023-02-03T11:56:58.903Z,9.10
2023-02-03T11:59:34.064Z,9.00
2023-02-03T12:02:39.842Z,8.18
2023-02-03T12:05:29.449Z,8.65
2023-02-03T12:08:15.138Z,6.95
2023-02-03T12:11:15.576Z,11.85
2023-02-03T12:14:26.126Z,10.85
2023-02-03T12:17:08.684Z,8.30
2023-02-03T12:20:21.327Z,12.27
2023-02-03T12:23:31.195Z,9.20
2023-02-03T12:26:45.402Z,10.05
2023-02-03T12:29:32.379Z,9.52
2023-02-03T12:32:14.869Z,11.30
2023-02-03T12:34:55.875Z,15.70
2023-02-03T12:37:46.223Z,10.60
2023-02-03T12:40:40.792Z,10.73
2023-02-03T12:43:31.154Z,12.32
2023-02-03T12:46:10.954Z,7.30
2023-02-03T12:48:52.420Z,7.63
2023-02-03T12:51:47.061Z,7.25
2023-02-03T12:54:31.339Z,9.50
2023-02-03T12:57:24.666Z,10.57
2023-02-03T13:00:13.995Z,11.05
2023-02-03T13:03:02.743Z,10.63
2023-02-03T13:05:44.007Z,11.23
2023-02-03T13:08:35.333Z,11.77
2023-02-03T13:11:19.290Z,9.30
2023-02-03T13:14:40.822Z,10.73
2023-02-03T13:17:26.663Z,13.65
2023-02-03T13:20:14.407Z,13.02
2023-02-03T13:22:46.897Z,10.35
2023-02-03T13:25:57.771Z,11.63
2023-02-03T13:28:56.188Z,10.05
2023-02-03T13:31:57.140Z,9.52
2023-02-03T13:37:19.465Z,12.02
2023-02-03T13:39:51.419Z,12.00
2023-02-03T13:42:23.400Z,18.20
2023-02-03T13:45:23.809Z,18.45
2023-02-03T13:48:02.442Z,19.00
2023-02-03T13:50:35.402Z,11.32
2023-02-03T13:53:23.959Z,14.63
2023-02-03T13:56:04.918Z,13.63
2023-02-03T13:58:39.558Z,15.38
2023-02-03T14:01:28.813Z,13.00
2023-02-03T14:04:01.961Z,14.13
2023-02-03T14:06:40.203Z,16.70
2023-02-03T14:09:30.736Z,21.17
2023-02-03T14:12:31.072Z,17.73
2023-02-03T14:15:31.566Z,17.95
2023-02-03T14:18:07.540Z,20.05
2023-02-03T14:20:42.710Z,18.25
2023-02-03T14:23:27.911Z,15.35
2023-02-03T14:26:01.192Z,21.35
2023-02-03T14:28:46.061Z,18.58
2023-02-03T14:31:25.701Z,16.35
2023-02-03T14:34:05.967Z,17.50
2023-02-03T14:36:42.909Z,16.23
2023-02-03T14:39:20.647Z,17.98
2023-02-03T14:42:25.280Z,17.45
2023-02-03T14:45:06.085Z,14.30
2023-02-03T14:50:37.676Z,15.55
2023-02-03T14:53:30.578Z,21.00
2023-02-03T14:56:31.685Z,18.05
2023-02-03T14:59:10.037Z,16.55
2023-02-03T15:01:42.054Z,15.13
2023-02-03T15:04:13.974Z,14.40
2023-02-03T15:06:48.648Z,16.00
2023-02-03T15:09:48.764Z,16.58
2023-02-03T15:12:26.792Z,15.05
2023-02-03T15:15:20.207Z,18.08
2023-02-03T15:17:55.298Z,18.17
2023-02-03T15:20:44.342Z,18.98
2023-02-03T15:23:24.913Z,17.13
2023-02-03T15:26:11.243Z,14.80
2023-02-03T15:28:43.180Z,18.23
2023-02-03T15:31:32.768Z,18.98
2023-02-03T15:34:17.042Z,21.98
2023-02-03T15:36:53.141Z,17.50
2023-02-03T15:39:44.128Z,19.73
2023-02-03T15:42:39.920Z,22.17
2023-02-03T15:45:23.888Z,22.90
2023-02-03T15:48:27.035Z,18.90
2023-02-03T15:51:05.393Z,21.63
2023-02-03T15:53:47.804Z,23.67
2023-02-03T15:56:35.589Z,22.77
2023-02-03T15:59:25.452Z,21.58
2023-02-03T16:01:57.704Z,38.53
2023-02-03T16:04:33.831Z,27.83
2023-02-03T16:07:06.022Z,31.88
2023-02-03T16:09:41.938Z,27.42
2023-02-03T16:12:24.641Z,27.10
2023-02-03T16:14:58.367Z,27.50
2023-02-03T16:17:33.666Z,26.77
2023-02-03T16:20:11.805Z,31.17
2023-02-03T16:23:07.844Z,26.42
2023-02-03T16:25:39.873Z,28.58
2023-02-03T16:28:36.040Z,24.02
2023-02-03T16:31:36.397Z,24.13
2023-02-03T16:34:37.279Z,24.83
2023-02-03T16:40:38.439Z,20.48
2023-02-03T16:43:34.091Z,23.15
2023-02-03T16:46:30.291Z,25.42
2023-02-03T16:49:21.064Z,24.02
2023-02-03T16:54:24.885Z,27.67
2023-02-03T16:56:58.700Z,28.02
2023-02-03T16:59:31.256Z,21.52
2023-02-03T17:02:03.260Z,28.20
2023-02-03T17:04:36.668Z,25.88
2023-02-03T17:07:08.852Z,24.67
2023-02-03T17:09:40.812Z,22.95
2023-02-03T17:12:12.826Z,19.05
2023-02-03T17:14:44.949Z,21.40
2023-02-03T17:17:16.888Z,23.52
2023-02-03T17:19:48.817Z,21.75
2023-02-03T17:22:20.796Z,20.90
2023-02-03T17:24:52.952Z,21.67
2023-02-03T17:27:25.030Z,24.42
2023-02-03T17:29:56.949Z,23.48
2023-02-03T17:32:28.972Z,23.52
2023-02-03T17:35:00.880Z,20.45
2023-02-03T17:37:33.651Z,25.83
2023-02-03T17:54:06.668Z,21.20
2023-02-03T17:56:38.688Z,24.63
2023-02-03T17:59:10.614Z,21.10
2023-02-03T18:01:43.020Z,24.00
2023-02-03T18:04:15.248Z,22.55
2023-02-03T18:06:47.167Z,23.85
2023-02-03T18:09:18.995Z,24.40
2023-02-03T18:11:50.934Z,27.65
2023-02-03T18:14:23.025Z,23.65
2023-02-03T18:16:54.982Z,22.70
2023-02-03T18:19:27.444Z,23.75
2023-02-03T18:22:00.327Z,24.05
2023-02-03T18:24:32.396Z,22.33
2023-02-03T18:27:04.620Z,24.05
2023-02-03T18:29:36.560Z,24.55
2023-02-03T18:32:08.466Z,25.13
2023-02-03T18:34:40.964Z,27.17
2023-02-03T18:37:13.045Z,28.17
2023-02-03T18:39:44.988Z,27.88
2023-02-03T18:42:16.985Z,29.20
2023-02-03T18:44:48.914Z,27.20
2023-02-03T18:47:20.846Z,31.85
2023-02-03T18:49:52.815Z,35.95
2023-02-03T18:52:24.814Z,32.63
2023-02-03T18:54:56.764Z,32.53
2023-02-03T18:57:28.966Z,33.90
2023-02-03T19:00:01.017Z,32.30
2023-02-03T19:02:34.683Z,30.45
2023-02-03T19:05:07.857Z,29.05
2023-02-03T19:07:39.866Z,38.88
2023-02-03T19:10:12.148Z,47.00
2023-02-03T19:12:44.197Z,46.72
2023-02-03T19:15:16.357Z,53.42
2023-02-03T19:17:48.343Z,47.75
2023-02-03T19:20:20.528Z,41.92
2023-02-03T19:22:54.221Z,47.53
2023-02-03T19:25:26.728Z,48.88
2023-02-03T19:27:58.803Z,51.88
2023-02-03T19:30:32.492Z,55.35
2023-02-03T19:33:04.961Z,51.72
2023-02-03T19:35:37.112Z,42.10
2023-02-03T19:38:09.511Z,45.90
2023-02-03T19:40:41.420Z,44.75
2023-02-03T19:43:13.623Z,46.72
2023-02-03T19:45:45.593Z,37.25
2023-02-03T19:48:17.603Z,33.65
2023-02-03T19:50:49.805Z,40.05
2023-02-03T19:53:21.982Z,39.53
2023-02-03T19:55:53.919Z,34.53
2023-02-03T19:58:25.900Z,34.47
2023-02-03T20:00:57.847Z,39.67
2023-02-03T20:03:29.801Z,34.30
2023-02-03T20:06:01.758Z,46.10
2023-02-03T20:08:33.737Z,42.90
2023-02-03T20:11:06.099Z,45.22
2023-02-03T20:13:38.129Z,31.88
2023-02-03T20:16:10.094Z,41.28
2023-02-03T20:18:42.053Z,64.22
2023-02-03T20:21:14.587Z,58.60
2023-02-03T20:23:46.601Z,72.82
2023-02-03T20:26:18.571Z,62.15
2023-02-03T20:28:50.519Z,60.83
2023-02-03T20:31:22.628Z,50.85
2023-02-03T20:33:54.701Z,54.80
2023-02-03T20:36:26.664Z,57.85
2023-02-03T20:38:58.815Z,45.85
2023-02-03T20:41:30.729Z,37.63
2023-02-03T20:44:02.856Z,37.10
2023-02-03T20:46:34.843Z,39.30
2023-02-03T20:49:12.177Z,38.17
2023-02-03T20:51:44.140Z,37.03
2023-02-03T20:54:21.930Z,34.20
2023-02-03T20:56:53.846Z,33.17
2023-02-03T20:59:25.727Z,42.05
2023-02-03T21:01:59.264Z,34.30
2023-02-03T21:04:49.944Z,37.47
2023-02-03T21:07:23.357Z,38.45
2023-02-03T21:09:55.779Z,39.22
2023-02-03T21:12:28.993Z,39.72
2023-02-03T21:15:01.283Z,38.13
2023-02-03T21:17:36.152Z,38.28
2023-02-03T21:20:24.481Z,41.28
2023-02-03T21:22:56.875Z,39.33
2023-02-03T21:25:32.483Z,37.33
2023-02-03T21:28:04.582Z,40.70
2023-02-03T21:30:36.938Z,42.83
2023-02-03T21:33:36.319Z,43.20
2023-02-03T21:36:38.122Z,39.10
2023-02-03T21:39:28.775Z,41.60
2023-02-03T21:42:39.578Z,39.00
2023-02-03T21:47:51.507Z,35.60
2023-02-03T21:50:34.925Z,36.78
2023-02-03T21:53:10.165Z,41.35
2023-02-03T21:55:42.961Z,34.70
2023-02-03T21:58:36.563Z,37.70
2023-02-03T22:01:08.860Z,37.03
2023-02-03T22:03:43.531Z,34.55
2023-02-03T22:06:34.210Z,37.72
2023-02-03T22:09:06.731Z,33.10
2023-02-03T22:11:39.475Z,49.97
2023-02-03T22:14:13.598Z,40.17
2023-02-03T22:16:45.556Z,37.83
2023-02-03T22:19:17.934Z,41.70
2023-02-03T22:21:51.209Z,49.30
2023-02-03T22:24:23.142Z,49.00
2023-02-03T22:27:00.401Z,44.25
2023-02-03T22:29:32.275Z,41.60
2023-02-03T22:32:04.254Z,44.70
2023-02-03T22:34:36.201Z,40.83
2023-02-03T22:37:08.221Z,43.08
2023-02-03T22:39:40.101Z,40.00
2023-02-03T22:42:12.115Z,38.03
2023-02-03T22:44:44.071Z,41.80
2023-02-03T22:47:16.039Z,36.70
2023-02-03T22:49:47.981Z,41.25
2023-02-03T22:52:19.910Z,38.00
2023-02-03T22:54:51.905Z,37.55
2023-02-03T22:57:24.151Z,30.65
2023-02-03T22:59:56.006Z,29.70
2023-02-03T23:02:27.997Z,41.75
2023-02-03T23:04:59.983Z,37.78
2023-02-03T23:07:32.006Z,40.45
2023-02-03T23:10:05.293Z,40.95
2023-02-03T23:12:37.618Z,38.20
2023-02-03T23:15:13.670Z,40.33
2023-02-03T23:17:46.124Z,43.28
2023-02-03T23:20:18.547Z,39.78
2023-02-03T23:22:50.497Z,40.20
2023-02-03T23:25:22.627Z,38.03
2023-02-03T23:27:54.679Z,38.95
2023-02-03T23:30:26.939Z,40.15
2023-02-03T23:32:58.860Z,35.20
2023-02-03T23:35:46.007Z,33.83
2023-02-03T23:38:18.432Z,43.95
2023-02-03T23:40:50.420Z,31.33
2023-02-03T23:43:22.316Z,36.10
2023-02-03T23:45:54.383Z,24.95
2023-02-03T23:48:26.325Z,28.58
2023-02-03T23:50:58.744Z,32.58
2023-02-03T23:53:30.664Z,23.70
2023-02-03T23:56:02.599Z,30.92
2023-02-03T23:58:34.545Z,35.83
